Pagrindinis puslapis
METAR-TAF:

METAR-TAF

Oro uostai :

Russian Mission, Aliaska, Jungtinės Amerikos Valstijos

platuma: 61-46-30N, ilguma: 161-19-10W, Aukštis: 16 m

Dabartinis oras

Ataskaita buvo paskelbta 31 minutes, ne 06:56 UTC
Vėjas 3 kt iš Vakarų/Pietvakarių
Temperatūra -24°C
Drėgmė 76%
Slėgis 1016 hPa
Matomumas: 16.1 km
Giedras dangus

METAR: PARS 280656Z AUTO 25003KT 10SM CLR M24/M27 A2999 RMK AO2 SLP159 T12441272 FZRANO $

Laikas: 22:27 (07:27 UTC)


TAF: trūkstamas

Orai ataskaitas ir orų prognozės (METAR, TAF).

turimą stotys yra geltonos ir raudonos taškus žemėlapyje.

Perkelti pele per norėdami pamatyti stoties vardą.

Tada spustelėkite, norėdami matyti oro stebėjimo ir prognozės.

Norėdami pakeisti žemėlapį: spustelėkite ant žalios mygtukų su juodo kryžiaus žemyn,; žalią mygtuką su brūkšneliu, jei norite nutolinti; arba žalių rodyklių gretimoms žemėlapius.


METAR-TAF: